Ευχαριστούμε που συμβάλλετε στη διατήρηση της σελίδας μας.

Thank you for your donations, it really helps to maintain the page.


Στατιστικά Καιρού & Άλλα..









Δείκτης Πυρκαγιάς (FWI)

Καστελόκαμπος Ρίον more information Kastelokampos Rion


Κάμερα Ρομανού more information Romanos Cam


Ραντάρ Κεραυνών more information blitzortung!


προειδοποίηση για Βροχή more information rain snow radar


Επισκεφθείτε άλλες ιστοσελίδες καιρού μας:

Meteopatras.Eu in
Euweather NetworkMeteopatras.Eu in Euweather Network

Weather CloudWeather Cloud

PWS WeatherPWS Weather

Awekas NetWeather data from station Patra-Ketx

WunderGroundWeather data from station Patra-Ketx



Βροχή Από : 29-03-2020 05:00 Μέχρι : 12:00 προειδοποίηση για : Βροχή Επίπεδο : Κίτρινο info button

Ιδιοκτησία και Επίβλεψη : Μουλάς Αντρέας

 Πάτρα, Ελλάδα - Γ.Πλάτος : 38°14'21" Β - Γ.Μήκος : 21°45'5" Α - Υψόμετρο : 56μ

Κοντινές Αναφορές METAR

Warning: A non-numeric value encountered in /storage/content/70/1007070/meteopatras.eu/public_html/weather/metar/metarDisplay.php on line 166
   
LGRX - Araxos
Ενημερώθηκε: 29-03-2020 02:50
Μερικώς Νεφελώδης  
Μερικώς Νεφελώδης  
   Άνεμος: Άπνοια
Άνεμος: Άπνοια
Θερμοκρασία: 10°C
Σημείο Δρόσου: 9°C
Υγρασία: 94%
Βαρόμετρο: 1012 hPa
Σύννεφα: Μερικώς Νεφελώδης
Ορατότητα: More than 10 km
Λεπτομέρειες Σύννεφου: Κυρίως Αίθριος 1800 ft,
Μερικώς Νεφελώδης 3000 ft
LGRX 290050Z 00000KT 9999 FEW018 SCT030 10/09 Q1012
LGAD - Andravida
Ενημερώθηκε: 29-03-2020 04:20
Μερικώς Νεφελώδης  
Μερικώς Νεφελώδης  
   Άνεμος: Άπνοια
Άνεμος: Άπνοια
Θερμοκρασία: 10°C
Σημείο Δρόσου: 9°C
Υγρασία: 94%
Βαρόμετρο: 1012 hPa
Σύννεφα: Μερικώς Νεφελώδης
Ορατότητα: More than 10 km
Λεπτομέρειες Σύννεφου: Κυρίως Αίθριος 1800 ft,
Μερικώς Νεφελώδης 3000 ft
LGAD 290120Z 00000KT 9999 FEW018 SCT030 10/09 Q1012
LGZA - Zakinthos
Ενημερώθηκε: 28-03-2020 19:50
ΜΗ τρέχουσες
Μερικώς Νεφελώδης  
Μερικώς Νεφελώδης  
   Άνεμος: Άπνοια
Άνεμος: Άπνοια
Θερμοκρασία: 13°C
Σημείο Δρόσου: 10°C
Υγρασία: 82%
Βαρόμετρο: 1012 hPa
Σύννεφα: Μερικώς Νεφελώδης
Ορατότητα: More than 10 km
Λεπτομέρειες Σύννεφου: Κυρίως Αίθριος 1800 ft,
Μερικώς Νεφελώδης 2000 ft
LGZA 281750Z 00000KT 9999 FEW018 SCT020 13/10 Q1012
LGKF - Kefallinia
Ενημερώθηκε: 28-03-2020 19:50
ΜΗ τρέχουσες
Κυρίως Συννεφιά  
Κυρίως Συννεφιά  
   Άνεμος: ΔΒΔ 11.1 km/h
Άνεμος: ΔΒΔ 11.1 km/h
Θερμοκρασία: 14°C
Σημείο Δρόσου: 10°C
Υγρασία: 77%
Βαρόμετρο: 1012 hPa
Σύννεφα: Κυρίως Συννεφιά
Ορατότητα: More than 10 km
Λεπτομέρειες Σύννεφου: Κυρίως Αίθριος 1200 ft,
Κυρίως Αίθριος 1600 ft,
Μερικώς Νεφελώδης 2000 ft,
Κυρίως Συννεφιά 7000 ft
LGKF 281750Z 29006KT 9999 FEW012 FEW016TCU SCT020 BKN070 14/10 Q1012
LGPZ - Preveza
Ενημερώθηκε: 29-03-2020 02:50
Μερικώς Νεφελώδης  
Μερικώς Νεφελώδης  
   Άνεμος: Άπνοια
Άνεμος: Άπνοια
Θερμοκρασία: 9°C
Σημείο Δρόσου: 8°C
Υγρασία: 94%
Βαρόμετρο: 1012 hPa
Σύννεφα: Μερικώς Νεφελώδης
Ορατότητα: More than 10 km
Λεπτομέρειες Σύννεφου: Μερικώς Νεφελώδης 2000 ft
LGPZ 290050Z 00000KT 9999 SCT020 09/08 Q1012
LGKL - Kalamata
Ενημερώθηκε: 29-03-2020 04:20
  
  
   Άνεμος: ποικίλλει 5.6 km/h
Άνεμος: ποικίλλει 5.6 km/h
Θερμοκρασία: 7°C
Δείκτης Ψυχρότητας: 6°C
Σημείο Δρόσου: 7°C
Υγρασία: 100%
Βαρόμετρο: 1012 hPa
LGKL 290120Z AUTO VRB03KT //// // ////// 07/07 Q1012 RE//
LGKR - Kerkyra
Ενημερώθηκε: 29-03-2020 04:50
Αίθριος  
Αίθριος  
   Άνεμος: ΔΝΔ 3.7 km/h
Άνεμος: ΔΝΔ 3.7 km/h
Θερμοκρασία: 9°C
Σημείο Δρόσου: 8°C
Υγρασία: 94%
Βαρόμετρο: 1012 hPa
Ορατότητα: More than 10 km
Λεπτομέρειες Σύννεφου: Αίθριος
LGKR 290150Z 25002KT CAVOK 09/08 Q1012 NOSIG
LGIO - Iwannina
Ενημερώθηκε: 29-03-2020 04:20
  
  
   Άνεμος: Άπνοια
Άνεμος: Άπνοια
Θερμοκρασία: 6°C
Σημείο Δρόσου: 6°C
Υγρασία: 100%
Βαρόμετρο: 1012 hPa
LGIO 290120Z AUTO 00000KT //// // ////// 06/06 Q1012 RERA
LGPZ - Leykada
Ενημερώθηκε: 29-03-2020 02:50
Μερικώς Νεφελώδης  
Μερικώς Νεφελώδης  
   Άνεμος: Άπνοια
Άνεμος: Άπνοια
Θερμοκρασία: 9°C
Σημείο Δρόσου: 8°C
Υγρασία: 94%
Βαρόμετρο: 1012 hPa
Σύννεφα: Μερικώς Νεφελώδης
Ορατότητα: More than 10 km
Λεπτομέρειες Σύννεφου: Μερικώς Νεφελώδης 2000 ft
LGPZ 290050Z 00000KT 9999 SCT020 09/08 Q1012
LGEL - Elefsina
Ενημερώθηκε: 29-03-2020 04:20
Κυρίως Συννεφιά  
Κυρίως Συννεφιά  
   Άνεμος: ποικίλλει 5.6 km/h
Άνεμος: ποικίλλει 5.6 km/h
Θερμοκρασία: 9°C
Δείκτης Ψυχρότητας: 8°C
Σημείο Δρόσου: 8°C
Υγρασία: 94%
Βαρόμετρο: 1010 hPa
Σύννεφα: Κυρίως Συννεφιά
Ορατότητα: More than 10 km
Λεπτομέρειες Σύννεφου: Κυρίως Συννεφιά 3000 ft
LGEL 290120Z VRB03KT 9999 BKN030 09/08 Q1010
LGKC - Kythira
Ενημερώθηκε: 27-03-2020 13:50
ΜΗ τρέχουσες
Κυρίως Αίθριος  
Κυρίως Αίθριος  
   Άνεμος: Δύση 33.3 km/h<br />Gust to 33.3 km/h
Άνεμος: Δύση 33.3 km/h
Gust to 33.3 km/h
Θερμοκρασία: 14°C
Σημείο Δρόσου: 8°C
Υγρασία: 67%
Βαρόμετρο: 1011 hPa
Σύννεφα: Κυρίως Αίθριος
Ορατότητα: More than 10 km
Λεπτομέρειες Σύννεφου: Κυρίως Αίθριος 2000 ft
LGKC 271150Z 27018G28KT 9999 FEW020 14/08 Q1011
LGIR - Hraklio
Ενημερώθηκε: 29-03-2020 04:50
Κυρίως Αίθριος  
Κυρίως Αίθριος  
   Άνεμος: Νότος 9.3 km/h
Άνεμος: Νότος 9.3 km/h
Θερμοκρασία: 10°C
Δείκτης Ψυχρότητας: 9°C
Σημείο Δρόσου: 8°C
Υγρασία: 88%
Βαρόμετρο: 1012 hPa
Σύννεφα: Κυρίως Αίθριος
Ορατότητα: More than 10 km
Λεπτομέρειες Σύννεφου: Κυρίως Αίθριος 2000 ft
LGIR 290150Z 18005KT 9999 FEW020 10/08 Q1012 NOSIG

Script developed by  Saratoga-weather.org Προσαρμοσμένος για το πρότυπο του  Weerstation Leuven

Μπορείτε να βρείτε πληροφορίες καιρού μας και σε:

European Weather Network

WeatherCloud

Weather Underground

Δύκτιο Σταθμών Ελλάδας

AWEKAS

HAMweather, WeatherForYou, PWS Weather

MeteoPatras.Eu